Time;durP1;ratioP1;P1;durP2;ratioP2;P2;SDS_P1;SDS_P2;PMS_P1;PMS_P2;Temp;Humidity;BMP_temperature;BMP_pressure;BME280_temperature;BME280_humidity;BME280_pressure;Samples;Min_cycle;Max_cycle;Signal;HPM_P1;HPM_P2
2021/11/04 00:01:24;;;;;;;;;;;8.30;96.60;;;;;;4305462;33;45162;-77
2021/11/04 00:03:52;;;;;;;;;;;8.30;96.60;;;;;;4319807;33;25638;-77
2021/11/04 00:06:24;;;;;;;;;;;8.30;96.60;;;;;;4319050;33;41606;-77
2021/11/04 00:08:51;;;;;;;;;;;8.30;96.60;;;;;;4306529;33;41783;-77
2021/11/04 00:11:18;;;;;;;;;;;8.30;96.60;;;;;;4306416;33;43025;-77
2021/11/04 00:13:45;;;;;;;;;;;8.30;96.60;;;;;;4319442;33;36732;-77
2021/11/04 00:16:13;;;;;;;;;;;8.30;96.60;;;;;;4319940;33;20010;-77
2021/11/04 00:18:40;;;;;;;;;;;8.30;96.60;;;;;;4319277;33;26399;-77
2021/11/04 00:21:07;;;;;;;;;;;8.30;96.60;;;;;;4332438;33;25729;-77
2021/11/04 00:23:34;;;;;;;;;;;8.30;96.60;;;;;;4319166;33;32149;-77
2021/11/04 00:26:02;;;;;;;;;;;8.30;96.60;;;;;;4306502;33;33699;-77
2021/11/04 00:28:29;;;;;;;;;;;8.30;96.70;;;;;;4307052;33;24775;-77
2021/11/04 00:30:59;;;;;;;;;;;8.30;96.70;;;;;;4319526;33;27584;-77
2021/11/04 00:33:26;;;;;;;;;;;8.30;96.70;;;;;;4318348;33;38373;-77
2021/11/04 00:35:56;;;;;;;;;;;8.30;96.70;;;;;;4332493;33;20411;-77
2021/11/04 00:38:23;;;;;;;;;;;8.30;96.70;;;;;;4318565;33;38116;-77
2021/11/04 00:40:51;;;;;;;;;;;8.30;96.70;;;;;;4306391;33;39598;-77
2021/11/04 00:43:21;;;;;;;;;;;8.30;96.70;;;;;;4319322;33;20024;-77
2021/11/04 00:45:48;;;;;;;;;;;8.20;96.60;;;;;;4319299;33;20378;-77
2021/11/04 00:48:16;;;;;;;;;;;8.20;96.60;;;;;;4319137;33;20005;-77
2021/11/04 00:50:46;;;;;;;;;;;8.30;96.70;;;;;;4319067;33;33167;-77
2021/11/04 00:53:13;;;;;;;;;;;8.30;96.70;;;;;;4332675;33;20043;-77
2021/11/04 00:55:41;;;;;;;;;;;8.20;96.70;;;;;;4306147;33;33595;-77
2021/11/04 00:58:08;;;;;;;;;;;8.20;96.70;;;;;;4306317;33;37057;-77
2021/11/04 01:00:35;;;;;;;;;;;8.20;96.70;;;;;;4318955;33;20021;-77
2021/11/04 01:03:04;;;;;;;;;;;8.20;96.70;;;;;;4317925;33;46271;-77
2021/11/04 01:05:32;;;;;;;;;;;8.20;96.70;;;;;;4305446;33;46858;-77
2021/11/04 01:08:01;;;;;;;;;;;8.20;96.80;;;;;;4306279;33;20462;-77
2021/11/04 01:10:28;;;;;;;;;;;8.20;96.80;;;;;;4305968;33;34391;-77
2021/11/04 01:12:55;;;;;;;;;;;8.20;96.80;;;;;;4305827;33;35711;-77
2021/11/04 01:15:23;;;;;;;;;;;8.20;96.80;;;;;;4318238;33;35064;-77
2021/11/04 01:17:50;;;;;;;;;;;8.30;96.80;;;;;;4331525;33;36165;-77
2021/11/04 01:20:20;;;;;;;;;;;8.20;96.80;;;;;;4318024;33;40900;-77
2021/11/04 01:22:48;;;;;;;;;;;8.30;96.80;;;;;;4317528;33;45010;-77
2021/11/04 01:25:16;;;;;;;;;;;8.20;96.80;;;;;;4306694;33;20021;-77
2021/11/04 01:27:46;;;;;;;;;;;8.30;96.80;;;;;;4318309;33;38073;-77
2021/11/04 01:30:13;;;;;;;;;;;8.30;96.80;;;;;;4317622;33;40605;-77
2021/11/04 01:32:40;;;;;;;;;;;8.30;96.80;;;;;;4305646;33;38079;-77
2021/11/04 01:35:07;;;;;;;;;;;8.20;96.80;;;;;;4306696;33;20359;-77
2021/11/04 01:37:35;;;;;;;;;;;8.30;96.80;;;;;;4317864;33;29527;-77
2021/11/04 01:40:04;;;;;;;;;;;8.20;97.10;;;;;;4330807;33;37732;-77
2021/11/04 01:42:31;;;;;;;;;;;8.30;96.80;;;;;;4305853;33;27636;-77
2021/11/04 01:44:58;;;;;;;;;;;8.30;96.80;;;;;;4317510;33;36638;-77
2021/11/04 01:47:25;;;;;;;;;;;8.30;96.80;;;;;;4305876;33;33219;-77
2021/11/04 01:49:54;;;;;;;;;;;8.30;96.80;;;;;;4305142;33;43083;-77
2021/11/04 01:52:22;;;;;;;;;;;8.20;96.80;;;;;;4330720;33;42459;-77
2021/11/04 01:54:49;;;;;;;;;;;8.20;96.80;;;;;;4305509;33;42458;-77
2021/11/04 01:57:16;;;;;;;;;;;8.30;96.80;;;;;;4330963;33;32456;-77
2021/11/04 01:59:46;;;;;;;;;;;8.20;96.70;;;;;;4318439;33;20017;-77
2021/11/04 02:02:20;;;;;;;;;;;8.30;96.80;;;;;;4303002;33;32165;-77
2021/11/04 02:04:50;;;;;;;;;;;8.30;96.80;;;;;;4315492;33;29529;-77
2021/11/04 02:07:32;;;;;;;;;;;8.30;96.80;;;;;;4317359;33;20010;-77
2021/11/04 02:10:03;;;;;;;;;;;8.30;96.80;;;;;;4317463;33;20104;-77
2021/11/04 02:12:37;;;;;;;;;;;8.30;96.80;;;;;;4316498;33;30081;-77
2021/11/04 02:15:05;;;;;;;;;;;8.30;96.80;;;;;;4315284;33;37523;-77
2021/11/04 02:17:33;;;;;;;;;;;8.30;96.80;;;;;;4302736;33;36782;-77
2021/11/04 02:20:00;;;;;;;;;;;8.30;96.80;;;;;;4314926;33;38508;-77
2021/11/04 02:22:27;;;;;;;;;;;8.30;96.80;;;;;;4303542;33;20014;-77
2021/11/04 02:25:15;;;;;;;;;;;8.30;96.80;;;;;;4315033;33;40315;-77
2021/11/04 02:27:44;;;;;;;;;;;8.30;96.80;;;;;;4315630;33;20056;-77
2021/11/04 02:30:12;;;;;;;;;;;8.30;96.80;;;;;;4302932;33;36254;-77
2021/11/04 02:32:39;;;;;;;;;;;8.30;96.80;;;;;;4303116;33;35345;-77
2021/11/04 02:35:06;;;;;;;;;;;8.30;96.80;;;;;;4314856;33;42047;-77
2021/11/04 02:37:34;;;;;;;;;;;8.30;96.80;;;;;;4315260;33;29941;-77
2021/11/04 02:40:02;;;;;;;;;;;8.30;96.80;;;;;;4302508;33;42497;-77
2021/11/04 02:42:29;;;;;;;;;;;8.30;96.80;;;;;;4302696;33;37144;-77
2021/11/04 02:44:56;;;;;;;;;;;8.30;96.80;;;;;;4314866;33;35607;-77
2021/11/04 02:47:24;;;;;;;;;;;8.30;96.80;;;;;;4314957;33;39966;-77
2021/11/04 02:49:52;;;;;;;;;;;8.30;96.80;;;;;;4315842;33;20387;-77
2021/11/04 02:52:21;;;;;;;;;;;8.30;96.80;;;;;;4315594;33;20061;-77
2021/11/04 02:55:03;;;;;;;;;;;8.20;96.80;;;;;;4302493;33;40537;-77
2021/11/04 02:57:31;;;;;;;;;;;8.20;96.80;;;;;;4315131;33;26096;-77
2021/11/04 02:59:58;;;;;;;;;;;8.20;96.80;;;;;;4317665;33;33481;-77
2021/11/04 03:02:25;;;;;;;;;;;8.20;96.80;;;;;;4316866;33;43425;-77
2021/11/04 03:04:52;;;;;;;;;;;8.20;96.80;;;;;;4305120;33;38987;-77
2021/11/04 03:07:19;;;;;;;;;;;8.20;96.80;;;;;;4317252;33;34649;-77
2021/11/04 03:09:47;;;;;;;;;;;8.20;96.80;;;;;;4317568;33;41639;-77
2021/11/04 03:12:14;;;;;;;;;;;8.20;96.90;;;;;;4317565;33;20410;-77
2021/11/04 03:14:41;;;;;;;;;;;8.20;96.90;;;;;;4304942;33;40508;-77
2021/11/04 03:17:09;;;;;;;;;;;8.20;96.80;;;;;;4305971;33;20448;-77
2021/11/04 03:19:36;;;;;;;;;;;8.20;96.90;;;;;;4304928;33;36442;-77
2021/11/04 03:22:04;;;;;;;;;;;8.20;96.90;;;;;;4318906;33;27796;-77
2021/11/04 03:24:32;;;;;;;;;;;8.20;96.90;;;;;;4305970;33;20474;-77
2021/11/04 03:27:03;;;;;;;;;;;8.20;96.90;;;;;;4304710;33;38749;-77
2021/11/04 03:29:36;;;;;;;;;;;8.10;96.90;;;;;;4305174;33;42767;-77
2021/11/04 03:32:07;;;;;;;;;;;8.10;96.90;;;;;;4318229;33;42364;-77
2021/11/04 03:34:35;;;;;;;;;;;8.20;96.90;;;;;;4317330;33;36941;-77
2021/11/04 03:37:03;;;;;;;;;;;8.10;96.90;;;;;;4317245;33;43087;-77
2021/11/04 03:39:34;;;;;;;;;;;8.20;96.90;;;;;;4318066;33;20005;-77
2021/11/04 03:42:02;;;;;;;;;;;8.20;96.90;;;;;;4319373;33;20064;-77
2021/11/04 03:44:29;;;;;;;;;;;8.20;96.90;;;;;;4317456;33;20029;-77
2021/11/04 03:47:00;;;;;;;;;;;8.20;96.90;;;;;;4318163;33;20021;-77
2021/11/04 03:49:31;;;;;;;;;;;8.20;96.90;;;;;;4318013;33;20013;-77
2021/11/04 03:52:01;;;;;;;;;;;8.10;96.90;;;;;;4305881;33;20012;-77
2021/11/04 03:54:28;;;;;;;;;;;8.10;96.90;;;;;;4317671;33;20018;-77
2021/11/04 03:56:56;;;;;;;;;;;8.10;96.90;;;;;;4305627;33;20002;-77
2021/11/04 03:59:26;;;;;;;;;;;8.10;96.90;;;;;;4304970;33;41454;-77
2021/11/04 04:01:56;;;;;;;;;;;8.10;96.90;;;;;;4322790;33;20072;-77
2021/11/04 04:04:23;;;;;;;;;;;8.10;96.90;;;;;;4307319;33;27336;-77
2021/11/04 04:06:53;;;;;;;;;;;8.10;96.90;;;;;;4332501;33;20127;-78
2021/11/04 04:09:24;;;;;;;;;;;8.10;96.90;;;;;;4318823;33;20032;-77
2021/11/04 04:11:51;;;;;;;;;;;8.10;96.90;;;;;;4318830;33;42953;-77
2021/11/04 04:14:21;;;;;;;;;;;8.10;96.90;;;;;;4318850;33;29493;-77
2021/11/04 04:16:49;;;;;;;;;;;8.10;97.00;;;;;;4332991;33;21267;-77
2021/11/04 04:19:21;;;;;;;;;;;8.10;97.00;;;;;;4318596;33;39832;-77
2021/11/04 04:21:54;;;;;;;;;;;8.10;97.00;;;;;;4306923;33;38795;-77
2021/11/04 04:24:29;;;;;;;;;;;8.10;97.00;;;;;;4306658;33;40159;-77
2021/11/04 04:27:00;;;;;;;;;;;8.10;97.00;;;;;;4333155;33;20020;-77
2021/11/04 04:29:27;;;;;;;;;;;8.10;97.00;;;;;;4306598;33;37108;-77
2021/11/04 04:31:55;;;;;;;;;;;8.10;97.00;;;;;;4307774;33;20043;-77
2021/11/04 04:34:22;;;;;;;;;;;8.10;97.00;;;;;;4319669;33;20057;-77
2021/11/04 04:36:49;;;;;;;;;;;8.10;97.00;;;;;;4306852;33;27968;-77
2021/11/04 04:39:26;;;;;;;;;;;8.10;97.00;;;;;;4320338;33;20399;-77
2021/11/04 04:41:53;;;;;;;;;;;8.10;97.00;;;;;;4307439;33;20002;-77
2021/11/04 04:44:20;;;;;;;;;;;8.10;97.00;;;;;;4307542;33;20002;-77
2021/11/04 04:46:51;;;;;;;;;;;8.10;97.00;;;;;;4319472;33;20017;-77
2021/11/04 04:49:18;;;;;;;;;;;8.10;97.00;;;;;;4306920;33;19997;-77
2021/11/04 04:51:45;;;;;;;;;;;8.10;97.00;;;;;;4332938;33;20010;-77
2021/11/04 04:54:15;;;;;;;;;;;8.10;97.00;;;;;;4332769;33;20078;-76
2021/11/04 04:56:46;;;;;;;;;;;8.10;97.00;;;;;;4307079;33;20091;-77
2021/11/04 04:59:16;;;;;;;;;;;8.10;97.00;;;;;;4307435;33;20053;-77
2021/11/04 05:01:45;;;;;;;;;;;8.10;97.00;;;;;;4307311;33;20410;-77
2021/11/04 05:04:18;;;;;;;;;;;8.00;96.90;;;;;;4319830;33;20072;-76
2021/11/04 05:06:48;;;;;;;;;;;8.00;96.90;;;;;;4319052;33;20427;-77
2021/11/04 05:09:20;;;;;;;;;;;8.00;96.90;;;;;;4318509;33;19998;-77
2021/11/04 05:11:47;;;;;;;;;;;8.00;96.90;;;;;;4307137;33;20072;-77
2021/11/04 05:14:14;;;;;;;;;;;8.00;96.90;;;;;;4306667;33;20001;-77
2021/11/04 05:16:44;;;;;;;;;;;8.00;96.90;;;;;;4319434;33;20065;-77
2021/11/04 05:19:13;;;;;;;;;;;8.00;97.00;;;;;;4318888;33;20005;-77
2021/11/04 05:21:47;;;;;;;;;;;8.00;96.90;;;;;;4306616;33;19994;-77
2021/11/04 05:24:16;;;;;;;;;;;8.00;96.90;;;;;;4332607;33;20009;-76
2021/11/04 05:26:52;;;;;;;;;;;8.00;96.90;;;;;;4307390;33;20005;-77
2021/11/04 05:29:21;;;;;;;;;;;8.00;97.00;;;;;;4319178;33;20057;-77
2021/11/04 05:31:51;;;;;;;;;;;8.00;97.00;;;;;;4318609;33;20002;-77
2021/11/04 05:34:23;;;;;;;;;;;8.00;97.00;;;;;;4319858;33;20073;-77
2021/11/04 05:36:56;;;;;;;;;;;8.00;96.90;;;;;;4331918;33;20006;-77
2021/11/04 05:39:26;;;;;;;;;;;8.00;96.90;;;;;;4306497;33;19998;-77
2021/11/04 05:41:54;;;;;;;;;;;8.00;97.00;;;;;;4306516;33;20305;-77
2021/11/04 05:44:27;;;;;;;;;;;8.00;97.00;;;;;;4319310;33;20010;-77
2021/11/04 05:46:58;;;;;;;;;;;8.00;97.00;;;;;;4306663;33;20003;-77
2021/11/04 05:49:28;;;;;;;;;;;8.00;97.00;;;;;;4306155;33;19998;-77
2021/11/04 05:51:56;;;;;;;;;;;8.00;97.00;;;;;;4306713;33;20031;-77
2021/11/04 05:54:25;;;;;;;;;;;8.00;97.00;;;;;;4331585;33;20005;-77
2021/11/04 05:56:52;;;;;;;;;;;8.00;97.00;;;;;;4318517;33;20512;-77
2021/11/04 05:59:20;;;;;;;;;;;8.00;97.00;;;;;;4318608;33;20371;-77
2021/11/04 06:01:50;;;;;;;;;;;8.00;97.00;;;;;;4315694;33;20025;-77
2021/11/04 06:04:25;;;;;;;;;;;8.00;97.00;;;;;;4317070;33;20301;-77
2021/11/04 06:06:52;;;;;;;;;;;8.00;97.00;;;;;;4304058;33;20073;-77
2021/11/04 06:09:22;;;;;;;;;;;8.00;97.00;;;;;;4315840;33;19994;-77
2021/11/04 06:11:53;;;;;;;;;;;8.00;97.00;;;;;;4316889;33;20421;-77
2021/11/04 06:14:25;;;;;;;;;;;8.00;97.00;;;;;;4315892;33;20032;-77
2021/11/04 06:16:53;;;;;;;;;;;8.00;97.00;;;;;;4316343;33;20070;-77
2021/11/04 06:19:23;;;;;;;;;;;8.00;97.00;;;;;;4304079;33;20010;-77
2021/11/04 06:21:50;;;;;;;;;;;7.90;97.00;;;;;;4315887;33;20025;-77
2021/11/04 06:24:17;;;;;;;;;;;7.90;96.90;;;;;;4315105;33;41894;-77
2021/11/04 06:26:47;;;;;;;;;;;8.00;97.00;;;;;;4315367;33;20048;-77
2021/11/04 06:29:14;;;;;;;;;;;7.90;97.00;;;;;;4316421;33;20076;-77
2021/11/04 06:31:41;;;;;;;;;;;8.00;97.00;;;;;;4315888;33;44958;-77
2021/11/04 06:34:08;;;;;;;;;;;8.00;97.00;;;;;;4317989;33;36919;-77
2021/11/04 06:36:36;;;;;;;;;;;8.00;97.00;;;;;;4319732;33;20069;-77
2021/11/04 06:39:03;;;;;;;;;;;8.00;97.10;;;;;;4305844;33;34833;-77
2021/11/04 06:41:30;;;;;;;;;;;8.00;97.00;;;;;;4317556;33;46336;-77
2021/11/04 06:48:00;;;;;;;;;;;8.00;97.00;;;;;;4320089;33;20008;-76
2021/11/04 06:50:32;;;;;;;;;;;7.90;96.90;;;;;;4317677;33;43665;-77
2021/11/04 06:53:06;;;;;;;;;;;7.90;96.90;;;;;;4318737;33;44328;-77
2021/11/04 06:55:35;;;;;;;;;;;7.90;97.30;;;;;;4319978;33;20139;-77
2021/11/04 06:58:03;;;;;;;;;;;8.00;97.00;;;;;;4318786;33;39987;-77
2021/11/04 07:00:32;;;;;;;;;;;7.90;96.90;;;;;;4304968;33;45286;-77
2021/11/04 07:03:08;;;;;;;;;;;7.90;97.00;;;;;;4318496;33;20006;-77
2021/11/04 07:05:36;;;;;;;;;;;7.90;97.00;;;;;;4306798;33;19997;-76
2021/11/04 07:08:29;;;;;;;;;;;7.90;97.00;;;;;;4318665;33;25196;-76
2021/11/04 07:11:00;;;;;;;;;;;7.90;97.00;;;;;;4317339;33;45033;-77
2021/11/04 07:13:29;;;;;;;;;;;7.90;97.00;;;;;;4305231;33;44067;-76
2021/11/04 07:15:57;;;;;;;;;;;7.90;97.00;;;;;;4317961;33;43256;-76
2021/11/04 07:18:25;;;;;;;;;;;7.90;97.00;;;;;;4316807;33;43913;-76
2021/11/04 07:21:08;;;;;;;;;;;7.90;97.00;;;;;;4316980;33;45014;-76
2021/11/04 07:23:36;;;;;;;;;;;7.90;97.00;;;;;;4305131;33;42019;-77
2021/11/04 07:26:04;;;;;;;;;;;7.90;96.90;;;;;;4316938;33;44618;-76
2021/11/04 07:28:32;;;;;;;;;;;7.90;97.00;;;;;;4318452;33;20256;-76
2021/11/04 07:30:59;;;;;;;;;;;7.90;97.00;;;;;;4318285;33;44449;-76
2021/11/04 07:33:27;;;;;;;;;;;7.90;97.00;;;;;;4317076;33;43481;-76
2021/11/04 07:35:57;;;;;;;;;;;7.90;97.00;;;;;;4316700;33;44268;-76
2021/11/04 07:38:26;;;;;;;;;;;7.90;97.00;;;;;;4316933;33;44654;-77
2021/11/04 07:40:53;;;;;;;;;;;7.90;97.00;;;;;;4316473;33;44079;-76
2021/11/04 07:43:20;;;;;;;;;;;7.90;97.00;;;;;;4317832;33;43320;-76
2021/11/04 07:45:47;;;;;;;;;;;7.90;97.00;;;;;;4316569;33;41636;-76
2021/11/04 07:48:14;;;;;;;;;;;7.90;97.00;;;;;;4317671;33;43135;-76
2021/11/04 07:50:41;;;;;;;;;;;7.90;97.00;;;;;;4316313;33;43581;-76
2021/11/04 07:53:08;;;;;;;;;;;7.90;96.90;;;;;;4316768;33;44703;-76
2021/11/04 07:55:35;;;;;;;;;;;7.90;97.00;;;;;;4316423;33;45607;-77
2021/11/04 07:58:08;;;;;;;;;;;8.00;97.00;;;;;;4316442;33;44658;-76
2021/11/04 08:00:35;;;;;;;;;;;8.00;97.00;;;;;;4318075;33;41313;-76
2021/11/04 08:03:07;;;;;;;;;;;7.90;97.00;;;;;;4328904;33;43640;-77
2021/11/04 08:05:34;;;;;;;;;;;7.90;97.00;;;;;;4319172;33;39996;-77
2021/11/04 08:08:01;;;;;;;;;;;7.90;97.00;;;;;;4306937;33;43538;-76
2021/11/04 08:10:35;;;;;;;;;;;7.90;97.00;;;;;;4321102;33;20100;-76
2021/11/04 08:13:06;;;;;;;;;;;7.90;96.90;;;;;;4319025;33;45309;-76
2021/11/04 08:15:36;;;;;;;;;;;7.90;96.90;;;;;;4319368;33;37554;-76
2021/11/04 08:18:11;;;;;;;;;;;7.90;96.90;;;;;;4332163;33;43356;-76
2021/11/04 08:20:39;;;;;;;;;;;7.90;96.90;;;;;;4333265;33;20013;-76
2021/11/04 08:23:13;;;;;;;;;;;7.90;96.90;;;;;;4332108;33;32528;-76
2021/11/04 08:25:41;;;;;;;;;;;7.90;97.00;;;;;;4333126;33;20426;-76
2021/11/04 08:28:09;;;;;;;;;;;7.90;97.00;;;;;;4307719;33;20032;-76
2021/11/04 08:30:36;;;;;;;;;;;7.90;97.00;;;;;;4318859;33;45028;-76
2021/11/04 08:33:05;;;;;;;;;;;7.90;97.00;;;;;;4318361;33;40799;-76
2021/11/04 08:35:32;;;;;;;;;;;7.90;97.00;;;;;;4333114;33;20024;-76
2021/11/04 08:37:59;;;;;;;;;;;7.90;97.00;;;;;;4318106;33;43933;-76
2021/11/04 08:40:26;;;;;;;;;;;7.90;97.10;;;;;;4319619;33;20060;-76
2021/11/04 08:42:53;;;;;;;;;;;7.90;97.10;;;;;;4318232;33;41851;-76
2021/11/04 08:45:23;;;;;;;;;;;7.90;97.10;;;;;;4318021;33;42971;-77
2021/11/04 08:47:50;;;;;;;;;;;7.90;97.10;;;;;;4332267;33;20053;-76
2021/11/04 08:50:17;;;;;;;;;;;7.90;97.10;;;;;;4319652;33;20028;-76
2021/11/04 08:52:46;;;;;;;;;;;7.90;97.10;;;;;;4318994;33;20061;-76
2021/11/04 08:55:13;;;;;;;;;;;7.90;97.10;;;;;;4318834;33;20017;-76
2021/11/04 08:57:40;;;;;;;;;;;7.90;97.10;;;;;;4332341;33;20027;-76
2021/11/04 09:00:09;;;;;;;;;;;7.90;97.20;;;;;;4318919;33;19994;-76
2021/11/04 09:02:36;;;;;;;;;;;8.00;97.20;;;;;;4316327;33;20437;-76
2021/11/04 09:05:07;;;;;;;;;;;7.90;97.10;;;;;;4316481;33;20017;-76
2021/11/04 09:07:39;;;;;;;;;;;8.00;97.20;;;;;;4316985;33;20485;-76
2021/11/04 09:10:10;;;;;;;;;;;8.00;97.20;;;;;;4316881;33;20031;-76
2021/11/04 09:12:37;;;;;;;;;;;7.90;97.20;;;;;;4317857;33;20013;-76
2021/11/04 09:15:05;;;;;;;;;;;7.90;97.20;;;;;;4316841;33;20010;-76
2021/11/04 09:17:33;;;;;;;;;;;8.00;97.30;;;;;;4317107;33;20013;-76
2021/11/04 09:20:00;;;;;;;;;;;8.00;97.30;;;;;;4317444;33;20343;-76
2021/11/04 09:22:27;;;;;;;;;;;8.00;97.30;;;;;;4304381;33;19998;-76
2021/11/04 09:24:56;;;;;;;;;;;8.00;97.30;;;;;;4317151;33;20081;-76
2021/11/04 09:27:23;;;;;;;;;;;8.00;97.30;;;;;;4315772;33;20383;-76
2021/11/04 09:29:50;;;;;;;;;;;8.00;97.30;;;;;;4317469;33;20539;-76
2021/11/04 09:32:18;;;;;;;;;;;8.00;97.30;;;;;;4304556;33;20010;-76
2021/11/04 09:35:03;;;;;;;;;;;8.00;97.40;;;;;;4316192;33;20012;-76
2021/11/04 09:37:31;;;;;;;;;;;8.00;97.40;;;;;;4304573;33;20021;-76
2021/11/04 09:39:58;;;;;;;;;;;8.00;97.40;;;;;;4304063;33;20006;-76
2021/11/04 09:42:29;;;;;;;;;;;8.10;97.40;;;;;;4316806;33;20057;-76
2021/11/04 09:44:56;;;;;;;;;;;8.10;97.40;;;;;;4316638;33;20006;-76
2021/11/04 09:47:28;;;;;;;;;;;8.10;97.40;;;;;;4304422;33;20002;-76
2021/11/04 09:49:59;;;;;;;;;;;8.10;97.40;;;;;;4303922;33;20057;-76
2021/11/04 09:52:27;;;;;;;;;;;8.10;97.40;;;;;;4317607;33;20437;-76
2021/11/04 09:55:02;;;;;;;;;;;8.10;97.50;;;;;;4316412;33;20006;-76
2021/11/04 09:57:29;;;;;;;;;;;8.10;97.50;;;;;;4304022;33;20413;-76
2021/11/04 09:59:59;;;;;;;;;;;8.10;97.50;;;;;;4316175;33;20010;-76
2021/11/04 10:02:27;;;;;;;;;;;8.10;97.50;;;;;;4303897;33;20024;-76
2021/11/04 10:05:21;;;;;;;;;;;8.10;97.50;;;;;;4315786;33;20065;-76
2021/11/04 10:07:49;;;;;;;;;;;8.10;97.50;;;;;;4316518;33;20016;-76
2021/11/04 10:10:18;;;;;;;;;;;8.10;97.50;;;;;;4316013;33;20070;-77
2021/11/04 10:12:55;;;;;;;;;;;8.10;97.50;;;;;;4317272;33;20136;-76
2021/11/04 10:15:24;;;;;;;;;;;8.10;97.50;;;;;;4317116;33;20010;-76
2021/11/04 10:17:51;;;;;;;;;;;8.10;97.50;;;;;;4316273;33;20014;-76
2021/11/04 10:20:19;;;;;;;;;;;8.00;97.50;;;;;;4315583;33;20415;-76
2021/11/04 10:22:58;;;;;;;;;;;8.10;97.50;;;;;;4315463;33;19998;-76
2021/11/04 10:25:25;;;;;;;;;;;8.10;97.50;;;;;;4316376;33;20080;-77
2021/11/04 10:27:53;;;;;;;;;;;8.00;97.50;;;;;;4304111;33;20014;-76
2021/11/04 10:30:38;;;;;;;;;;;8.10;97.60;;;;;;4303614;33;20003;-76
2021/11/04 10:33:17;;;;;;;;;;;8.10;97.60;;;;;;4317273;33;20121;-76
2021/11/04 10:35:49;;;;;;;;;;;8.10;97.50;;;;;;4316237;33;20084;-76
2021/11/04 10:38:17;;;;;;;;;;;8.00;97.50;;;;;;4316177;33;20014;-77
2021/11/04 10:40:44;;;;;;;;;;;8.10;97.60;;;;;;4317069;33;20010;-76
2021/11/04 10:43:13;;;;;;;;;;;8.10;97.60;;;;;;4316671;33;20006;-76
2021/11/04 10:45:40;;;;;;;;;;;8.00;97.60;;;;;;4315421;33;20018;-76
2021/11/04 10:48:22;;;;;;;;;;;8.00;97.60;;;;;;4315684;33;20032;-76
2021/11/04 10:50:50;;;;;;;;;;;8.00;97.60;;;;;;4303738;33;20028;-76
2021/11/04 10:53:20;;;;;;;;;;;8.10;97.70;;;;;;4303949;33;19998;-76
2021/11/04 10:55:53;;;;;;;;;;;8.00;97.70;;;;;;4315599;33;20067;-76
2021/11/04 10:58:27;;;;;;;;;;;8.00;97.70;;;;;;4303925;33;19998;-76
2021/11/04 11:00:55;;;;;;;;;;;8.10;97.80;;;;;;4303814;33;20128;-76
2021/11/04 11:03:22;;;;;;;;;;;8.00;97.70;;;;;;4315358;33;20100;-76
2021/11/04 11:05:51;;;;;;;;;;;8.10;97.80;;;;;;4315814;33;20058;-76
2021/11/04 11:08:18;;;;;;;;;;;8.10;97.80;;;;;;4317019;33;20439;-76
2021/11/04 11:10:45;;;;;;;;;;;8.10;97.80;;;;;;4315191;33;20073;-76
2021/11/04 11:13:21;;;;;;;;;;;8.00;97.80;;;;;;4304262;33;20008;-76
2021/11/04 11:15:58;;;;;;;;;;;8.10;97.80;;;;;;4315895;33;20013;-76
2021/11/04 11:18:29;;;;;;;;;;;8.10;97.80;;;;;;4304152;33;20350;-76
2021/11/04 11:20:56;;;;;;;;;;;8.10;97.80;;;;;;4318096;33;19994;-76
2021/11/04 11:23:28;;;;;;;;;;;8.10;97.80;;;;;;4318119;33;20040;-76
2021/11/04 11:25:56;;;;;;;;;;;8.10;97.70;;;;;;4318344;33;20075;-76
2021/11/04 11:28:31;;;;;;;;;;;8.10;97.70;;;;;;4318282;33;20054;-76
2021/11/04 11:31:11;;;;;;;;;;;8.10;97.70;;;;;;4317928;33;20006;-76
2021/11/04 11:33:39;;;;;;;;;;;8.10;97.70;;;;;;4304945;33;42003;-76
2021/11/04 11:36:14;;;;;;;;;;;8.10;97.80;;;;;;4318143;33;20045;-76
2021/11/04 11:39:04;;;;;;;;;;;8.10;97.80;;;;;;4306329;33;19998;-76
2021/11/04 11:41:51;;;;;;;;;;;8.20;97.80;;;;;;4306346;33;20012;-76
2021/11/04 11:44:39;;;;;;;;;;;8.10;97.80;;;;;;4305661;33;20006;-76
2021/11/04 11:47:12;;;;;;;;;;;8.20;97.80;;;;;;4317352;33;28048;-76
2021/11/04 11:49:40;;;;;;;;;;;8.10;97.80;;;;;;4305033;33;29813;-77
2021/11/04 11:52:26;;;;;;;;;;;8.20;97.80;;;;;;4305013;33;24327;-76
2021/11/04 11:54:57;;;;;;;;;;;8.10;97.80;;;;;;4317264;33;30633;-77
2021/11/04 11:57:25;;;;;;;;;;;8.20;97.90;;;;;;4305438;33;20033;-77
2021/11/04 11:59:53;;;;;;;;;;;8.20;97.90;;;;;;4304251;33;42282;-77
2021/11/04 12:02:36;;;;;;;;;;;8.10;97.90;;;;;;4316482;33;32512;-77
2021/11/04 12:05:20;;;;;;;;;;;8.20;97.90;;;;;;4306356;33;19998;-77
2021/11/04 12:08:07;;;;;;;;;;;8.10;97.90;;;;;;4305441;33;20049;-77
2021/11/04 12:10:43;;;;;;;;;;;8.10;97.90;;;;;;4314865;33;20012;-76
2021/11/04 12:13:30;;;;;;;;;;;8.20;98.00;;;;;;4304561;33;35167;-76
2021/11/04 12:16:12;;;;;;;;;;;8.10;98.00;;;;;;4319037;33;20441;-76
2021/11/04 12:18:58;;;;;;;;;;;8.20;98.00;;;;;;4305752;33;20045;-77
2021/11/04 12:21:27;;;;;;;;;;;8.20;98.00;;;;;;4305519;33;20057;-77
2021/11/04 12:23:55;;;;;;;;;;;8.20;98.00;;;;;;4304080;33;36257;-77
2021/11/04 12:26:36;;;;;;;;;;;8.20;98.00;;;;;;4304251;33;34295;-77
2021/11/04 12:29:05;;;;;;;;;;;8.20;98.00;;;;;;4316352;33;44594;-76
2021/11/04 12:31:36;;;;;;;;;;;8.20;98.00;;;;;;4303379;33;32967;-77
2021/11/04 12:34:06;;;;;;;;;;;8.20;98.00;;;;;;4305423;33;20014;-77
2021/11/04 12:36:41;;;;;;;;;;;8.20;98.10;;;;;;4316816;33;24330;-77
2021/11/04 12:39:25;;;;;;;;;;;8.20;98.10;;;;;;4304606;33;31643;-77
2021/11/04 12:41:54;;;;;;;;;;;8.30;98.10;;;;;;4316437;33;27071;-77
2021/11/04 12:44:24;;;;;;;;;;;8.20;98.10;;;;;;4316601;33;28857;-77
2021/11/04 12:46:54;;;;;;;;;;;8.20;98.10;;;;;;4304080;33;26215;-77
2021/11/04 12:49:26;;;;;;;;;;;8.20;98.10;;;;;;4304686;33;20011;-77
2021/11/04 12:51:54;;;;;;;;;;;8.20;98.10;;;;;;4303847;33;39994;-77
2021/11/04 12:54:29;;;;;;;;;;;8.20;98.10;;;;;;4316527;33;20001;-77
2021/11/04 12:56:58;;;;;;;;;;;8.30;98.20;;;;;;4303852;33;35205;-77
2021/11/04 12:59:44;;;;;;;;;;;8.30;98.20;;;;;;4303712;33;35418;-77
2021/11/04 13:02:17;;;;;;;;;;;8.30;98.20;;;;;;4315495;33;39421;-77
2021/11/04 13:05:00;;;;;;;;;;;8.30;98.20;;;;;;4304474;33;39796;-76
2021/11/04 13:07:28;;;;;;;;;;;8.30;98.20;;;;;;4315995;33;39662;-76
2021/11/04 13:09:56;;;;;;;;;;;8.30;98.20;;;;;;4316821;33;25838;-76
2021/11/04 13:12:28;;;;;;;;;;;8.30;98.30;;;;;;4316478;33;20009;-77
2021/11/04 13:14:57;;;;;;;;;;;8.30;98.30;;;;;;4316754;33;20018;-77
2021/11/04 13:17:39;;;;;;;;;;;8.30;98.30;;;;;;4317245;33;20072;-77
2021/11/04 13:20:06;;;;;;;;;;;8.30;98.30;;;;;;4315676;33;37888;-77
2021/11/04 13:22:35;;;;;;;;;;;8.30;98.30;;;;;;4303508;33;34344;-77
2021/11/04 13:25:04;;;;;;;;;;;8.30;98.30;;;;;;4316362;33;20029;-77
2021/11/04 13:27:32;;;;;;;;;;;8.30;98.30;;;;;;4316577;33;20061;-77
2021/11/04 13:29:59;;;;;;;;;;;8.30;98.30;;;;;;4316736;33;42977;-77
2021/11/04 13:32:48;;;;;;;;;;;8.30;98.30;;;;;;4316709;33;20181;-76
2021/11/04 13:35:32;;;;;;;;;;;8.30;98.30;;;;;;4316254;33;34953;-76
2021/11/04 13:38:04;;;;;;;;;;;8.30;98.30;;;;;;4317250;33;20013;-77
2021/11/04 13:40:43;;;;;;;;;;;8.30;98.30;;;;;;4315636;33;37055;-77
2021/11/04 13:43:11;;;;;;;;;;;8.30;98.30;;;;;;4315446;33;35874;-76
2021/11/04 13:45:39;;;;;;;;;;;8.30;98.40;;;;;;4315291;33;39435;-77
2021/11/04 13:48:07;;;;;;;;;;;8.30;98.40;;;;;;4314970;33;38446;-77
2021/11/04 13:50:45;;;;;;;;;;;8.30;98.40;;;;;;4314853;33;38917;-77
2021/11/04 13:53:12;;;;;;;;;;;8.30;98.40;;;;;;4316144;33;37780;-77
2021/11/04 13:55:42;;;;;;;;;;;8.30;98.40;;;;;;4316631;33;22000;-77
2021/11/04 13:58:10;;;;;;;;;;;8.40;98.40;;;;;;4303707;33;25969;-77
2021/11/04 14:00:38;;;;;;;;;;;8.40;98.40;;;;;;4316481;33;20088;-77
2021/11/04 14:03:11;;;;;;;;;;;8.40;98.40;;;;;;4328492;33;20006;-77
2021/11/04 14:06:05;;;;;;;;;;;8.40;98.40;;;;;;4305368;33;44010;-77
2021/11/04 14:08:35;;;;;;;;;;;8.40;98.40;;;;;;4315843;33;31494;-77
2021/11/04 14:11:12;;;;;;;;;;;8.40;98.40;;;;;;4318630;33;20010;-78
2021/11/04 14:13:49;;;;;;;;;;;8.40;98.40;;;;;;4318594;33;19997;-77
2021/11/04 14:16:26;;;;;;;;;;;8.40;98.40;;;;;;4318850;33;20020;-77
2021/11/04 14:18:58;;;;;;;;;;;8.40;98.40;;;;;;4306722;33;20024;-77
2021/11/04 14:21:26;;;;;;;;;;;8.40;98.40;;;;;;4305520;33;28622;-77
2021/11/04 14:23:54;;;;;;;;;;;8.40;98.80;;;;;;4305449;33;40651;-77
2021/11/04 14:26:24;;;;;;;;;;;8.40;98.40;;;;;;4331465;33;20499;-77
2021/11/04 14:28:55;;;;;;;;;;;8.40;98.80;;;;;;4331213;33;20019;-77
2021/11/04 14:31:26;;;;;;;;;;;8.40;98.50;;;;;;4318362;33;20406;-77
2021/11/04 14:33:56;;;;;;;;;;;8.40;98.50;;;;;;4318521;33;20013;-77
2021/11/04 14:36:24;;;;;;;;;;;8.40;98.50;;;;;;4331223;33;20005;-77
2021/11/04 14:38:51;;;;;;;;;;;8.40;98.50;;;;;;4318080;33;20005;-77
2021/11/04 14:41:19;;;;;;;;;;;8.50;98.50;;;;;;4331578;33;20065;-77
2021/11/04 14:43:46;;;;;;;;;;;8.50;98.50;;;;;;4317037;33;39414;-77
2021/11/04 14:46:22;;;;;;;;;;;8.50;98.50;;;;;;4318539;33;37421;-77
2021/11/04 14:48:49;;;;;;;;;;;8.50;98.50;;;;;;4330709;33;31668;-77
2021/11/04 14:51:18;;;;;;;;;;;8.50;98.60;;;;;;4317252;33;38618;-77
2021/11/04 14:53:45;;;;;;;;;;;8.50;98.60;;;;;;4317411;33;45036;-77